sensor_id;sensor_type;location;lat;lon;timestamp;P1;durP1;ratioP1;P2;durP2;ratioP2
29302;SDS011;60019;45.556;12.004;2024-03-22T00:03:55;56.20;;;43.95;;
29302;SDS011;60019;45.556;12.004;2024-03-22T00:09:57;55.30;;;43.20;;
29302;SDS011;60019;45.556;12.004;2024-03-22T00:15:58;56.10;;;43.13;;
29302;SDS011;60019;45.556;12.004;2024-03-22T00:22:00;57.60;;;42.78;;
29302;SDS011;60019;45.556;12.004;2024-03-22T00:28:02;56.90;;;43.72;;
29302;SDS011;60019;45.556;12.004;2024-03-22T00:34:03;55.08;;;43.75;;
29302;SDS011;60019;45.556;12.004;2024-03-22T00:40:06;54.03;;;42.47;;
29302;SDS011;60019;45.556;12.004;2024-03-22T00:46:08;56.15;;;43.53;;
29302;SDS011;60019;45.556;12.004;2024-03-22T00:52:10;56.88;;;43.38;;
29302;SDS011;60019;45.556;12.004;2024-03-22T00:58:11;53.13;;;41.95;;
29302;SDS011;60019;45.556;12.004;2024-03-22T01:04:13;52.23;;;42.13;;
29302;SDS011;60019;45.556;12.004;2024-03-22T01:10:15;55.40;;;43.33;;
29302;SDS011;60019;45.556;12.004;2024-03-22T01:16:17;53.17;;;40.23;;
29302;SDS011;60019;45.556;12.004;2024-03-22T01:22:19;55.17;;;42.27;;
29302;SDS011;60019;45.556;12.004;2024-03-22T01:28:20;53.83;;;41.55;;
29302;SDS011;60019;45.556;12.004;2024-03-22T01:34:22;51.15;;;40.75;;
29302;SDS011;60019;45.556;12.004;2024-03-22T01:40:24;56.13;;;39.97;;
29302;SDS011;60019;45.556;12.004;2024-03-22T01:46:26;52.00;;;41.25;;
29302;SDS011;60019;45.556;12.004;2024-03-22T01:52:27;51.33;;;41.25;;
29302;SDS011;60019;45.556;12.004;2024-03-22T01:58:30;56.22;;;42.00;;
29302;SDS011;60019;45.556;12.004;2024-03-22T02:04:32;55.60;;;42.35;;
29302;SDS011;60019;45.556;12.004;2024-03-22T02:10:33;50.53;;;41.27;;
29302;SDS011;60019;45.556;12.004;2024-03-22T02:16:35;52.33;;;39.23;;
29302;SDS011;60019;45.556;12.004;2024-03-22T02:22:37;52.40;;;40.25;;
29302;SDS011;60019;45.556;12.004;2024-03-22T02:28:39;48.08;;;37.70;;
29302;SDS011;60019;45.556;12.004;2024-03-22T02:34:41;50.27;;;39.17;;
29302;SDS011;60019;45.556;12.004;2024-03-22T02:40:43;51.27;;;40.57;;
29302;SDS011;60019;45.556;12.004;2024-03-22T02:46:45;51.45;;;40.67;;
29302;SDS011;60019;45.556;12.004;2024-03-22T02:52:50;53.43;;;39.97;;
29302;SDS011;60019;45.556;12.004;2024-03-22T02:58:52;52.20;;;41.27;;
29302;SDS011;60019;45.556;12.004;2024-03-22T03:04:54;56.47;;;42.22;;
29302;SDS011;60019;45.556;12.004;2024-03-22T03:10:55;59.03;;;43.28;;
29302;SDS011;60019;45.556;12.004;2024-03-22T03:16:57;54.67;;;41.92;;
29302;SDS011;60019;45.556;12.004;2024-03-22T03:22:59;55.53;;;41.83;;
29302;SDS011;60019;45.556;12.004;2024-03-22T03:29:02;53.08;;;39.65;;
29302;SDS011;60019;45.556;12.004;2024-03-22T03:35:04;52.45;;;40.20;;
29302;SDS011;60019;45.556;12.004;2024-03-22T03:41:06;50.97;;;38.20;;
29302;SDS011;60019;45.556;12.004;2024-03-22T03:47:08;49.00;;;38.67;;
29302;SDS011;60019;45.556;12.004;2024-03-22T03:53:10;47.65;;;36.13;;
29302;SDS011;60019;45.556;12.004;2024-03-22T03:59:11;47.25;;;35.97;;
29302;SDS011;60019;45.556;12.004;2024-03-22T04:05:13;49.10;;;37.30;;
29302;SDS011;60019;45.556;12.004;2024-03-22T04:11:15;48.90;;;37.00;;
29302;SDS011;60019;45.556;12.004;2024-03-22T04:17:17;46.97;;;35.55;;
29302;SDS011;60019;45.556;12.004;2024-03-22T04:23:19;41.40;;;33.05;;
29302;SDS011;60019;45.556;12.004;2024-03-22T04:29:20;40.95;;;30.98;;
29302;SDS011;60019;45.556;12.004;2024-03-22T04:35:22;38.07;;;29.77;;
29302;SDS011;60019;45.556;12.004;2024-03-22T04:41:24;38.93;;;28.47;;
29302;SDS011;60019;45.556;12.004;2024-03-22T04:47:26;36.60;;;28.33;;
29302;SDS011;60019;45.556;12.004;2024-03-22T04:53:28;33.03;;;26.33;;
29302;SDS011;60019;45.556;12.004;2024-03-22T04:59:29;31.93;;;24.93;;
29302;SDS011;60019;45.556;12.004;2024-03-22T05:05:31;31.30;;;24.37;;
29302;SDS011;60019;45.556;12.004;2024-03-22T05:11:33;30.30;;;24.13;;
29302;SDS011;60019;45.556;12.004;2024-03-22T05:17:35;30.60;;;24.10;;
29302;SDS011;60019;45.556;12.004;2024-03-22T05:23:37;28.10;;;23.00;;
29302;SDS011;60019;45.556;12.004;2024-03-22T05:29:38;31.07;;;24.23;;
29302;SDS011;60019;45.556;12.004;2024-03-22T05:35:40;28.20;;;22.37;;
29302;SDS011;60019;45.556;12.004;2024-03-22T05:41:42;25.80;;;21.90;;
29302;SDS011;60019;45.556;12.004;2024-03-22T05:47:44;27.30;;;22.20;;
29302;SDS011;60019;45.556;12.004;2024-03-22T05:53:46;61.75;;;27.33;;
29302;SDS011;60019;45.556;12.004;2024-03-22T05:59:48;32.45;;;24.80;;
29302;SDS011;60019;45.556;12.004;2024-03-22T06:05:49;33.53;;;25.85;;
29302;SDS011;60019;45.556;12.004;2024-03-22T06:11:55;33.10;;;25.40;;
29302;SDS011;60019;45.556;12.004;2024-03-22T06:17:57;31.02;;;24.63;;
29302;SDS011;60019;45.556;12.004;2024-03-22T06:23:59;34.42;;;25.25;;
29302;SDS011;60019;45.556;12.004;2024-03-22T06:30:01;36.70;;;26.73;;
29302;SDS011;60019;45.556;12.004;2024-03-22T06:36:04;35.72;;;25.13;;
29302;SDS011;60019;45.556;12.004;2024-03-22T06:42:06;36.63;;;24.83;;
29302;SDS011;60019;45.556;12.004;2024-03-22T06:48:08;31.88;;;23.15;;
29302;SDS011;60019;45.556;12.004;2024-03-22T06:54:09;30.60;;;23.00;;
29302;SDS011;60019;45.556;12.004;2024-03-22T07:00:11;28.00;;;21.15;;
29302;SDS011;60019;45.556;12.004;2024-03-22T07:06:14;26.90;;;19.97;;
29302;SDS011;60019;45.556;12.004;2024-03-22T07:12:16;25.08;;;20.25;;
29302;SDS011;60019;45.556;12.004;2024-03-22T07:18:18;24.90;;;19.23;;
29302;SDS011;60019;45.556;12.004;2024-03-22T07:24:19;22.20;;;17.20;;
29302;SDS011;60019;45.556;12.004;2024-03-22T07:30:24;21.65;;;17.35;;
29302;SDS011;60019;45.556;12.004;2024-03-22T07:36:26;23.30;;;17.00;;
29302;SDS011;60019;45.556;12.004;2024-03-22T07:42:28;20.70;;;17.08;;
29302;SDS011;60019;45.556;12.004;2024-03-22T07:48:29;19.38;;;16.13;;
29302;SDS011;60019;45.556;12.004;2024-03-22T07:54:31;21.58;;;16.17;;
29302;SDS011;60019;45.556;12.004;2024-03-22T08:00:33;17.88;;;14.98;;
29302;SDS011;60019;45.556;12.004;2024-03-22T08:06:35;18.35;;;14.18;;
29302;SDS011;60019;45.556;12.004;2024-03-22T08:12:37;18.15;;;15.02;;
29302;SDS011;60019;45.556;12.004;2024-03-22T08:18:38;16.23;;;13.93;;
29302;SDS011;60019;45.556;12.004;2024-03-22T08:24:40;15.17;;;12.27;;
29302;SDS011;60019;45.556;12.004;2024-03-22T08:30:42;14.95;;;12.52;;
29302;SDS011;60019;45.556;12.004;2024-03-22T08:36:44;14.93;;;12.18;;
29302;SDS011;60019;45.556;12.004;2024-03-22T08:42:46;14.40;;;12.20;;
29302;SDS011;60019;45.556;12.004;2024-03-22T08:48:47;14.17;;;12.07;;
29302;SDS011;60019;45.556;12.004;2024-03-22T08:54:50;14.57;;;11.50;;
29302;SDS011;60019;45.556;12.004;2024-03-22T09:00:52;14.05;;;11.95;;
29302;SDS011;60019;45.556;12.004;2024-03-22T09:06:54;13.52;;;11.55;;
29302;SDS011;60019;45.556;12.004;2024-03-22T09:12:55;11.27;;;10.07;;
29302;SDS011;60019;45.556;12.004;2024-03-22T09:18:57;12.60;;;10.93;;
29302;SDS011;60019;45.556;12.004;2024-03-22T09:24:59;12.83;;;10.93;;
29302;SDS011;60019;45.556;12.004;2024-03-22T09:31:04;11.43;;;9.70;;
29302;SDS011;60019;45.556;12.004;2024-03-22T09:37:06;12.68;;;9.90;;
29302;SDS011;60019;45.556;12.004;2024-03-22T09:43:08;11.30;;;9.93;;
29302;SDS011;60019;45.556;12.004;2024-03-22T09:49:11;12.93;;;9.70;;
29302;SDS011;60019;45.556;12.004;2024-03-22T09:55:14;10.57;;;8.87;;
29302;SDS011;60019;45.556;12.004;2024-03-22T10:01:15;9.50;;;8.50;;
29302;SDS011;60019;45.556;12.004;2024-03-22T10:07:17;10.60;;;8.47;;
29302;SDS011;60019;45.556;12.004;2024-03-22T10:13:20;8.40;;;7.50;;
29302;SDS011;60019;45.556;12.004;2024-03-22T10:19:22;9.93;;;7.40;;
29302;SDS011;60019;45.556;12.004;2024-03-22T10:25:27;9.00;;;6.83;;
29302;SDS011;60019;45.556;12.004;2024-03-22T10:31:29;8.43;;;6.77;;
29302;SDS011;60019;45.556;12.004;2024-03-22T10:37:32;9.37;;;6.80;;
29302;SDS011;60019;45.556;12.004;2024-03-22T10:43:34;9.10;;;7.10;;
29302;SDS011;60019;45.556;12.004;2024-03-22T10:49:37;8.60;;;6.80;;
29302;SDS011;60019;45.556;12.004;2024-03-22T10:55:41;7.57;;;6.47;;
29302;SDS011;60019;45.556;12.004;2024-03-22T11:01:45;8.00;;;6.28;;
29302;SDS011;60019;45.556;12.004;2024-03-22T11:07:57;9.55;;;5.80;;
29302;SDS011;60019;45.556;12.004;2024-03-22T11:14:00;6.72;;;5.25;;
29302;SDS011;60019;45.556;12.004;2024-03-22T11:20:02;7.40;;;5.90;;
29302;SDS011;60019;45.556;12.004;2024-03-22T11:26:04;5.80;;;5.25;;
29302;SDS011;60019;45.556;12.004;2024-03-22T11:32:07;7.20;;;5.70;;
29302;SDS011;60019;45.556;12.004;2024-03-22T11:38:09;5.47;;;4.95;;
29302;SDS011;60019;45.556;12.004;2024-03-22T11:44:11;6.53;;;4.93;;
29302;SDS011;60019;45.556;12.004;2024-03-22T11:50:14;7.50;;;4.50;;
29302;SDS011;60019;45.556;12.004;2024-03-22T11:56:20;4.93;;;4.43;;
29302;SDS011;60019;45.556;12.004;2024-03-22T12:02:22;6.15;;;4.78;;
29302;SDS011;60019;45.556;12.004;2024-03-22T12:08:23;4.87;;;4.27;;
29302;SDS011;60019;45.556;12.004;2024-03-22T12:14:25;5.13;;;4.18;;
29302;SDS011;60019;45.556;12.004;2024-03-22T12:20:27;5.35;;;4.13;;
29302;SDS011;60019;45.556;12.004;2024-03-22T12:26:29;5.65;;;4.50;;
29302;SDS011;60019;45.556;12.004;2024-03-22T12:32:30;5.73;;;3.43;;
29302;SDS011;60019;45.556;12.004;2024-03-22T12:38:32;6.30;;;3.63;;
29302;SDS011;60019;45.556;12.004;2024-03-22T12:44:34;3.50;;;3.08;;
29302;SDS011;60019;45.556;12.004;2024-03-22T12:50:36;7.28;;;3.58;;
29302;SDS011;60019;45.556;12.004;2024-03-22T12:56:39;5.13;;;4.10;;
29302;SDS011;60019;45.556;12.004;2024-03-22T13:02:41;5.47;;;3.47;;
29302;SDS011;60019;45.556;12.004;2024-03-22T13:08:42;5.93;;;4.60;;
29302;SDS011;60019;45.556;12.004;2024-03-22T13:14:44;9.05;;;6.72;;
29302;SDS011;60019;45.556;12.004;2024-03-22T13:20:46;12.25;;;6.65;;
29302;SDS011;60019;45.556;12.004;2024-03-22T13:26:48;7.40;;;5.65;;
29302;SDS011;60019;45.556;12.004;2024-03-22T13:32:50;7.97;;;5.57;;
29302;SDS011;60019;45.556;12.004;2024-03-22T13:38:52;8.00;;;4.83;;
29302;SDS011;60019;45.556;12.004;2024-03-22T13:44:55;6.82;;;4.25;;
29302;SDS011;60019;45.556;12.004;2024-03-22T13:50:57;6.17;;;4.40;;
29302;SDS011;60019;45.556;12.004;2024-03-22T13:56:59;5.70;;;4.10;;
29302;SDS011;60019;45.556;12.004;2024-03-22T14:03:01;4.70;;;4.20;;
29302;SDS011;60019;45.556;12.004;2024-03-22T14:09:03;5.18;;;4.20;;
29302;SDS011;60019;45.556;12.004;2024-03-22T14:15:05;5.40;;;4.15;;
29302;SDS011;60019;45.556;12.004;2024-03-22T14:21:07;6.78;;;4.90;;
29302;SDS011;60019;45.556;12.004;2024-03-22T14:27:09;5.53;;;3.97;;
29302;SDS011;60019;45.556;12.004;2024-03-22T14:33:11;6.83;;;4.40;;
29302;SDS011;60019;45.556;12.004;2024-03-22T14:39:13;6.32;;;4.45;;
29302;SDS011;60019;45.556;12.004;2024-03-22T14:45:14;6.00;;;4.60;;
29302;SDS011;60019;45.556;12.004;2024-03-22T14:51:22;9.93;;;5.37;;
29302;SDS011;60019;45.556;12.004;2024-03-22T14:57:25;5.43;;;4.40;;
29302;SDS011;60019;45.556;12.004;2024-03-22T15:03:27;10.10;;;4.60;;
29302;SDS011;60019;45.556;12.004;2024-03-22T15:09:29;5.83;;;4.13;;
29302;SDS011;60019;45.556;12.004;2024-03-22T15:15:30;10.50;;;4.75;;
29302;SDS011;60019;45.556;12.004;2024-03-22T15:21:32;8.13;;;4.38;;
29302;SDS011;60019;45.556;12.004;2024-03-22T15:27:35;6.10;;;4.50;;
29302;SDS011;60019;45.556;12.004;2024-03-22T15:33:37;9.68;;;4.75;;
29302;SDS011;60019;45.556;12.004;2024-03-22T15:39:41;10.53;;;5.63;;
29302;SDS011;60019;45.556;12.004;2024-03-22T15:45:43;9.00;;;4.93;;
29302;SDS011;60019;45.556;12.004;2024-03-22T15:51:45;8.73;;;5.57;;
29302;SDS011;60019;45.556;12.004;2024-03-22T15:57:46;8.65;;;5.82;;
29302;SDS011;60019;45.556;12.004;2024-03-22T16:03:48;9.03;;;5.80;;
29302;SDS011;60019;45.556;12.004;2024-03-22T16:09:50;10.95;;;5.97;;
29302;SDS011;60019;45.556;12.004;2024-03-22T16:15:52;9.97;;;6.07;;
29302;SDS011;60019;45.556;12.004;2024-03-22T16:21:53;11.40;;;6.27;;
29302;SDS011;60019;45.556;12.004;2024-03-22T16:27:55;10.02;;;7.13;;
29302;SDS011;60019;45.556;12.004;2024-03-22T16:33:57;8.82;;;6.65;;
29302;SDS011;60019;45.556;12.004;2024-03-22T16:39:59;10.48;;;6.50;;
29302;SDS011;60019;45.556;12.004;2024-03-22T16:46:01;9.17;;;6.40;;
29302;SDS011;60019;45.556;12.004;2024-03-22T16:52:03;12.17;;;8.70;;
29302;SDS011;60019;45.556;12.004;2024-03-22T16:58:05;12.87;;;10.90;;
29302;SDS011;60019;45.556;12.004;2024-03-22T17:04:06;12.18;;;10.02;;
29302;SDS011;60019;45.556;12.004;2024-03-22T17:10:08;9.90;;;7.90;;
29302;SDS011;60019;45.556;12.004;2024-03-22T17:16:10;7.85;;;6.95;;
29302;SDS011;60019;45.556;12.004;2024-03-22T17:22:12;8.83;;;7.37;;
29302;SDS011;60019;45.556;12.004;2024-03-22T17:28:14;8.93;;;7.35;;
29302;SDS011;60019;45.556;12.004;2024-03-22T17:34:15;7.65;;;6.28;;
29302;SDS011;60019;45.556;12.004;2024-03-22T17:40:17;7.55;;;6.75;;
29302;SDS011;60019;45.556;12.004;2024-03-22T17:46:19;8.13;;;6.25;;
29302;SDS011;60019;45.556;12.004;2024-03-22T17:52:21;7.65;;;5.78;;
29302;SDS011;60019;45.556;12.004;2024-03-22T17:58:26;7.43;;;5.82;;
29302;SDS011;60019;45.556;12.004;2024-03-22T18:04:28;7.47;;;5.78;;
29302;SDS011;60019;45.556;12.004;2024-03-22T18:10:29;9.20;;;8.00;;
29302;SDS011;60019;45.556;12.004;2024-03-22T18:16:31;12.18;;;9.60;;
29302;SDS011;60019;45.556;12.004;2024-03-22T18:22:33;16.67;;;11.93;;
29302;SDS011;60019;45.556;12.004;2024-03-22T18:28:35;12.70;;;9.70;;
29302;SDS011;60019;45.556;12.004;2024-03-22T18:34:37;10.43;;;9.02;;
29302;SDS011;60019;45.556;12.004;2024-03-22T18:40:38;12.40;;;9.87;;
29302;SDS011;60019;45.556;12.004;2024-03-22T18:46:40;13.00;;;9.33;;
29302;SDS011;60019;45.556;12.004;2024-03-22T18:52:43;13.55;;;9.85;;
29302;SDS011;60019;45.556;12.004;2024-03-22T18:58:45;12.27;;;10.35;;
29302;SDS011;60019;45.556;12.004;2024-03-22T19:04:46;14.73;;;11.35;;
29302;SDS011;60019;45.556;12.004;2024-03-22T19:10:48;16.08;;;11.85;;
29302;SDS011;60019;45.556;12.004;2024-03-22T19:16:50;16.97;;;11.67;;
29302;SDS011;60019;45.556;12.004;2024-03-22T19:22:52;18.27;;;13.00;;
29302;SDS011;60019;45.556;12.004;2024-03-22T19:28:54;18.90;;;13.40;;
29302;SDS011;60019;45.556;12.004;2024-03-22T19:34:55;152.33;;;37.00;;
29302;SDS011;60019;45.556;12.004;2024-03-22T19:40:57;55.00;;;23.60;;
29302;SDS011;60019;45.556;12.004;2024-03-22T19:46:59;29.63;;;20.35;;
29302;SDS011;60019;45.556;12.004;2024-03-22T19:53:01;26.60;;;20.00;;
29302;SDS011;60019;45.556;12.004;2024-03-22T19:59:03;27.40;;;20.75;;
29302;SDS011;60019;45.556;12.004;2024-03-22T20:05:05;29.43;;;21.23;;
29302;SDS011;60019;45.556;12.004;2024-03-22T20:11:07;31.10;;;23.03;;
29302;SDS011;60019;45.556;12.004;2024-03-22T20:17:09;31.25;;;23.45;;
29302;SDS011;60019;45.556;12.004;2024-03-22T20:23:11;36.03;;;27.33;;
29302;SDS011;60019;45.556;12.004;2024-03-22T20:29:13;37.13;;;28.57;;
29302;SDS011;60019;45.556;12.004;2024-03-22T20:35:14;42.67;;;32.97;;
